Time,TemperatureF,DewpointF,PressureIn,WindDirection,WindDirectionDegrees,WindSpeedMPH,WindSpeedGustMPH,Humidity,HourlyPrecipIn,Conditions,Clouds,dailyrainin,SoftwareType,DateUTC
2013-01-20 00:00:00,37.1,27.2,30.21,NNE,21,1.0,1.0,67,0.00,,SKC,0.00,VWS V14.01,2013-01-20 08:00:00,
2013-01-20 00:09:00,37.2,27.3,30.21,NNE,21,0.0,0.0,67,0.00,,SKC,0.00,VWS V14.01,2013-01-20 08:09:00,
2013-01-20 00:14:00,37.1,27.2,30.21,NNE,21,0.0,0.0,67,0.00,,SKC,0.00,VWS V14.01,2013-01-20 08:14:00,
2013-01-20 00:19:00,36.9,27.3,30.21,NNE,21,0.0,1.0,68,0.00,,SKC,0.00,VWS V14.01,2013-01-20 08:19:00,
2013-01-20 00:24:00,36.7,27.1,30.21,NNE,21,0.0,1.0,68,0.00,,SKC,0.00,VWS V14.01,2013-01-20 08:24:00,
2013-01-20 00:29:00,36.4,26.9,30.21,NNE,21,0.0,1.0,68,0.00,,SKC,0.00,VWS V14.01,2013-01-20 08:29:00,
2013-01-20 00:39:00,36.2,27.0,30.21,NNE,21,0.0,1.0,69,0.00,,SKC,0.00,VWS V14.01,2013-01-20 08:39:00,
2013-01-20 00:44:00,36.1,27.3,30.21,NNE,21,0.0,1.0,70,0.00,,SKC,0.00,VWS V14.01,2013-01-20 08:44:00,
2013-01-20 00:54:00,36.1,27.3,30.22,NNE,21,0.0,1.0,70,0.00,,SKC,0.00,VWS V14.01,2013-01-20 08:54:00,
2013-01-20 00:59:00,36.1,27.3,30.22,NNE,21,0.0,1.0,70,0.00,,SKC,0.00,VWS V14.01,2013-01-20 08:59:00,
2013-01-20 01:04:00,36.1,27.6,30.22,NNE,21,0.0,1.0,71,0.00,,SKC,0.00,VWS V14.01,2013-01-20 09:04:00,
2013-01-20 01:14:00,36.3,28.1,30.21,NNE,21,0.0,0.0,72,0.00,,SKC,0.00,VWS V14.01,2013-01-20 09:14:00,
2013-01-20 01:19:00,36.4,28.2,30.21,NNE,21,0.0,1.0,72,0.00,,SKC,0.00,VWS V14.01,2013-01-20 09:19:00,
2013-01-20 01:24:00,36.4,28.2,30.21,NNE,21,1.0,2.0,72,0.00,,SKC,0.00,VWS V14.01,2013-01-20 09:24:00,
2013-01-20 01:29:00,36.3,28.5,30.21,NNE,21,0.0,2.0,73,0.00,,SKC,0.00,VWS V14.01,2013-01-20 09:29:00,
2013-01-20 01:34:00,36.1,28.3,30.21,NNE,21,0.0,0.0,73,0.00,,SKC,0.00,VWS V14.01,2013-01-20 09:34:00,
2013-01-20 01:39:00,35.9,28.1,30.21,NNE,21,0.0,1.0,73,0.00,,SKC,0.00,VWS V14.01,2013-01-20 09:39:00,
2013-01-20 01:49:00,35.7,28.2,30.21,NNE,21,0.0,1.0,74,0.00,,SKC,0.00,VWS V14.01,2013-01-20 09:49:00,
2013-01-20 01:54:00,35.7,28.2,30.22,NNE,21,0.0,0.0,74,0.00,,SKC,0.00,VWS V14.01,2013-01-20 09:54:00,
2013-01-20 01:59:00,35.6,28.1,30.22,NNE,21,0.0,0.0,74,0.00,,SKC,0.00,VWS V14.01,2013-01-20 09:59:00,
2013-01-20 02:09:00,35.3,27.9,30.22,NNE,21,0.0,2.0,74,0.00,,SKC,0.00,VWS V14.01,2013-01-20 10:09:00,
2013-01-20 02:14:00,35.2,27.8,30.22,NNE,21,0.0,2.0,74,0.00,,SKC,0.00,VWS V14.01,2013-01-20 10:14:00,
2013-01-20 02:19:00,35.2,27.8,30.22,NNE,21,0.0,0.0,74,0.00,,SKC,0.00,VWS V14.01,2013-01-20 10:19:00,
2013-01-20 02:24:00,35.2,27.8,30.22,NNE,21,0.0,2.0,74,0.00,,SKC,0.00,VWS V14.01,2013-01-20 10:24:00,
2013-01-20 02:34:00,35.0,27.6,30.22,NNE,21,0.0,2.0,74,0.00,,SKC,0.00,VWS V14.01,2013-01-20 10:34:00,
2013-01-20 02:44:00,34.9,27.5,30.22,NNE,22,0.0,0.0,74,0.00,,SKC,0.00,VWS V14.01,2013-01-20 10:44:00,
2013-01-20 02:49:00,34.7,27.6,30.22,NNE,22,0.0,0.0,75,0.00,,SKC,0.00,VWS V14.01,2013-01-20 10:49:00,
2013-01-20 02:54:00,34.5,27.4,30.22,NNE,21,0.0,0.0,75,0.00,,SKC,0.00,VWS V14.01,2013-01-20 10:54:00,
2013-01-20 02:59:00,34.4,27.6,30.22,NNE,22,0.0,0.0,76,0.00,,SKC,0.00,VWS V14.01,2013-01-20 10:59:00,
2013-01-20 03:04:00,34.3,27.9,30.22,NNE,21,0.0,0.0,77,0.00,,SKC,0.00,VWS V14.01,2013-01-20 11:04:00,
2013-01-20 03:14:00,33.9,27.8,30.22,NNE,21,0.0,0.0,78,0.00,,SKC,0.00,VWS V14.01,2013-01-20 11:14:00,
2013-01-20 03:19:00,33.8,28.0,30.22,NNE,21,0.0,0.0,79,0.00,,SKC,0.00,VWS V14.01,2013-01-20 11:19:00,
2013-01-20 03:24:00,33.7,27.9,30.22,NNE,22,0.0,0.0,79,0.00,,SKC,0.00,VWS V14.01,2013-01-20 11:24:00,
2013-01-20 03:29:00,33.7,28.2,30.22,NNE,22,0.0,0.0,80,0.00,,SKC,0.00,VWS V14.01,2013-01-20 11:29:00,
2013-01-20 03:34:00,33.7,28.2,30.22,NNE,21,0.0,0.0,80,0.00,,SKC,0.00,VWS V14.01,2013-01-20 11:34:00,
2013-01-20 03:44:00,33.6,28.1,30.22,NNE,22,0.0,0.0,80,0.00,,SKC,0.00,VWS V14.01,2013-01-20 11:44:00,
2013-01-20 03:54:00,33.4,28.2,30.22,NNE,22,0.0,0.0,81,0.00,,SKC,0.00,VWS V14.01,2013-01-20 11:54:00,
2013-01-20 04:04:00,33.2,28.0,30.22,NNE,22,0.0,0.0,81,0.00,,SKC,0.00,VWS V14.01,2013-01-20 12:04:00,
2013-01-20 04:09:00,33.1,27.6,30.22,NNE,21,0.0,0.0,80,0.00,,SKC,0.00,VWS V14.01,2013-01-20 12:09:00,
2013-01-20 04:15:00,33.0,27.5,30.22,NNE,22,0.0,0.0,80,0.00,,SKC,0.00,VWS V14.01,2013-01-20 12:15:00,
2013-01-20 04:24:00,32.7,27.5,30.22,NNE,21,0.0,0.0,81,0.00,,SKC,0.00,VWS V14.01,2013-01-20 12:24:00,
2013-01-20 04:34:00,32.6,27.4,30.22,NNE,21,0.0,0.0,81,0.00,,SKC,0.00,VWS V14.01,2013-01-20 12:34:00,
2013-01-20 04:39:00,32.6,27.4,30.22,NNE,21,0.0,0.0,81,0.00,,SKC,0.00,VWS V14.01,2013-01-20 12:39:00,
2013-01-20 04:44:00,32.8,27.6,30.21,NNE,22,0.0,0.0,81,0.00,,SKC,0.00,VWS V14.01,2013-01-20 12:44:00,
2013-01-20 04:49:00,32.8,27.6,30.21,NNE,21,0.0,1.0,81,0.00,,SKC,0.00,VWS V14.01,2013-01-20 12:49:00,
2013-01-20 04:54:00,32.7,27.5,30.22,NNE,22,0.0,2.0,81,0.00,,SKC,0.00,VWS V14.01,2013-01-20 12:54:00,
2013-01-20 04:59:00,32.5,27.3,30.22,NNE,21,0.0,0.0,81,0.00,,SKC,0.00,VWS V14.01,2013-01-20 12:59:00,
2013-01-20 05:04:00,32.3,27.1,30.22,NNE,22,0.0,0.0,81,0.00,,SKC,0.00,VWS V14.01,2013-01-20 13:04:00,
2013-01-20 05:14:00,32.0,27.1,30.22,NNE,22,1.0,1.0,82,0.00,,SKC,0.00,VWS V14.01,2013-01-20 13:14:00,
2013-01-20 05:19:00,32.1,27.5,30.22,NNE,22,0.0,2.0,83,0.00,,SKC,0.00,VWS V14.01,2013-01-20 13:19:00,
2013-01-20 05:24:00,32.1,27.5,30.22,NNE,21,0.0,0.0,83,0.00,,SKC,0.00,VWS V14.01,2013-01-20 13:24:00,
2013-01-20 05:34:00,32.3,28.0,30.22,NNE,21,0.0,3.0,84,0.00,,SKC,0.00,VWS V14.01,2013-01-20 13:34:00,
2013-01-20 05:39:00,32.4,27.8,30.22,NNE,21,0.0,2.0,83,0.00,,SKC,0.00,VWS V14.01,2013-01-20 13:39:00,
2013-01-20 05:44:00,32.3,28.0,30.22,NNE,21,0.0,1.0,84,0.00,,SKC,0.00,VWS V14.01,2013-01-20 13:44:00,
2013-01-20 05:49:00,32.2,27.9,30.22,NNE,21,0.0,2.0,84,0.00,,SKC,0.00,VWS V14.01,2013-01-20 13:49:00,
2013-01-20 05:59:00,31.9,27.6,30.22,NNE,21,0.0,0.0,84,0.00,,SKC,0.00,VWS V14.01,2013-01-20 13:59:00,
2013-01-20 06:09:00,31.8,27.8,30.22,NNE,21,0.0,3.0,85,0.00,,SKC,0.00,VWS V14.01,2013-01-20 14:09:00,
2013-01-20 06:14:00,31.8,27.8,30.22,NNE,21,0.0,0.0,85,0.00,,SKC,0.00,VWS V14.01,2013-01-20 14:14:00,
2013-01-20 06:24:00,31.8,28.1,30.21,NNE,21,0.0,0.0,86,0.00,,SKC,0.00,VWS V14.01,2013-01-20 14:24:00,
2013-01-20 06:29:00,31.8,28.1,30.21,NNE,21,0.0,0.0,86,0.00,,SKC,0.00,VWS V14.01,2013-01-20 14:29:00,
2013-01-20 06:34:00,31.8,28.1,30.21,NNE,21,0.0,0.0,86,0.00,,SKC,0.00,VWS V14.01,2013-01-20 14:34:00,
2013-01-20 06:44:00,31.7,28.0,30.21,NNE,21,0.0,0.0,86,0.00,,SKC,0.00,VWS V14.01,2013-01-20 14:44:00,
2013-01-20 06:54:00,31.7,28.3,30.21,NNE,21,0.0,0.0,87,0.00,,SKC,0.00,VWS V14.01,2013-01-20 14:54:00,
2013-01-20 07:04:00,31.9,28.8,30.22,NNE,21,0.0,0.0,88,0.00,,SKC,0.00,VWS V14.01,2013-01-20 15:04:00,
2013-01-20 07:14:00,32.8,29.6,30.21,NNE,21,0.0,4.0,88,0.00,,SKC,0.00,VWS V14.01,2013-01-20 15:14:00,
2013-01-20 07:24:00,35.0,31.5,30.21,SSE,149,2.0,3.0,87,0.00,,SKC,0.00,VWS V14.01,2013-01-20 15:24:00,
2013-01-20 07:29:00,37.6,33.8,30.21,ENE,76,5.0,8.0,86,0.00,,SKC,0.00,VWS V14.01,2013-01-20 15:29:00,
2013-01-20 07:34:00,41.1,35.1,30.21,East,101,0.0,5.0,79,0.00,,SKC,0.00,VWS V14.01,2013-01-20 15:34:00,
2013-01-20 07:44:00,42.1,33.7,30.21,East,83,2.0,3.0,72,0.00,,SKC,0.00,VWS V14.01,2013-01-20 15:44:00,
2013-01-20 07:49:00,42.7,33.6,30.21,ESE,105,3.0,3.0,70,0.00,,SKC,0.00,VWS V14.01,2013-01-20 15:49:00,
2013-01-20 07:54:00,44.3,32.9,30.21,East,84,2.0,5.0,64,0.00,,SKC,0.00,VWS V14.01,2013-01-20 15:54:00,
2013-01-20 07:59:00,45.8,33.1,30.21,East,86,1.0,2.0,61,0.00,,SKC,0.00,VWS V14.01,2013-01-20 15:59:00,
2013-01-20 08:04:00,46.4,33.3,30.22,ESE,111,3.0,5.0,60,0.00,,SKC,0.00,VWS V14.01,2013-01-20 16:04:00,
2013-01-20 08:09:00,46.8,33.2,30.22,ESE,110,1.0,4.0,59,0.00,,SKC,0.00,VWS V14.01,2013-01-20 16:09:00,
2013-01-20 08:19:00,47.1,33.1,30.22,West,264,0.0,0.0,58,0.00,,SKC,0.00,VWS V14.01,2013-01-20 16:19:00,
2013-01-20 08:29:00,47.6,32.7,30.21,WNW,294,4.0,5.0,56,0.00,,SKC,0.00,VWS V14.01,2013-01-20 16:29:00,
2013-01-20 08:34:00,48.2,32.8,30.22,WSW,253,0.0,5.0,55,0.00,,SKC,0.00,VWS V14.01,2013-01-20 16:34:00,
2013-01-20 08:44:00,51.2,33.2,30.22,South,177,0.0,4.0,50,0.00,,SKC,0.00,VWS V14.01,2013-01-20 16:44:00,
2013-01-20 08:49:00,52.3,33.2,30.22,South,173,2.0,4.0,48,0.00,,SKC,0.00,VWS V14.01,2013-01-20 16:49:00,
2013-01-20 08:59:00,54.1,33.8,30.22,ESE,121,0.0,4.0,46,0.00,,SKC,0.00,VWS V14.01,2013-01-20 16:59:00,
2013-01-20 09:09:00,55.1,31.8,30.23,East,96,0.0,6.0,41,0.00,,SKC,0.00,VWS V14.01,2013-01-20 17:09:00,
2013-01-20 09:14:00,55.7,31.8,30.22,ESE,123,0.0,5.0,40,0.00,,SKC,0.00,VWS V14.01,2013-01-20 17:14:00,
2013-01-20 09:24:00,57.0,31.7,30.22,NNE,24,0.0,5.0,38,0.00,,SKC,0.00,VWS V14.01,2013-01-20 17:24:00,
2013-01-20 09:34:00,57.2,31.2,30.22,NNE,30,1.0,8.0,37,0.00,,SKC,0.00,VWS V14.01,2013-01-20 17:34:00,
2013-01-20 09:39:00,57.1,31.1,30.22,NNE,13,1.0,8.0,37,0.00,,SKC,0.00,VWS V14.01,2013-01-20 17:39:00,
2013-01-20 09:44:00,57.2,31.8,30.23,NNE,28,5.0,8.0,38,0.00,,SKC,0.00,VWS V14.01,2013-01-20 17:44:00,
2013-01-20 09:49:00,57.2,31.8,30.23,NNE,22,1.0,9.0,38,0.00,,SKC,0.00,VWS V14.01,2013-01-20 17:49:00,
2013-01-20 09:59:00,57.5,32.1,30.22,ENE,59,1.0,5.0,38,0.00,,SKC,0.00,VWS V14.01,2013-01-20 17:59:00,
2013-01-20 10:04:00,57.7,31.6,30.23,NNE,32,4.0,8.0,37,0.00,,SKC,0.00,VWS V14.01,2013-01-20 18:04:00,
2013-01-20 10:09:00,57.8,31.0,30.23,East,86,1.0,6.0,36,0.00,,SKC,0.00,VWS V14.01,2013-01-20 18:09:00,
2013-01-20 10:14:00,57.7,31.6,30.23,NNW,342,3.0,8.0,37,0.00,,SKC,0.00,VWS V14.01,2013-01-20 18:14:00,
2013-01-20 10:24:00,57.0,31.0,30.23,ESE,102,1.0,13.0,37,0.00,,SKC,0.00,VWS V14.01,2013-01-20 18:24:00,
2013-01-20 10:29:00,56.7,30.7,30.22,NNE,16,4.0,9.0,37,0.00,,SKC,0.00,VWS V14.01,2013-01-20 18:29:00,
2013-01-20 10:34:00,56.6,31.3,30.22,East,94,1.0,8.0,38,0.00,,SKC,0.00,VWS V14.01,2013-01-20 18:34:00,
2013-01-20 10:44:00,56.9,30.9,30.22,North,11,5.0,9.0,37,0.00,,SKC,0.00,VWS V14.01,2013-01-20 18:44:00,
2013-01-20 10:49:00,57.1,31.1,30.22,NNW,338,5.0,9.0,37,0.00,,SKC,0.00,VWS V14.01,2013-01-20 18:49:00,
2013-01-20 10:54:00,57.1,31.1,30.22,NNE,30,2.0,11.0,37,0.00,,SKC,0.00,VWS V14.01,2013-01-20 18:54:00,
2013-01-20 11:04:00,57.3,31.3,30.21,NE,40,4.0,8.0,37,0.00,,SKC,0.00,VWS V14.01,2013-01-20 19:04:00,
2013-01-20 11:14:00,57.4,32.0,30.21,East,83,8.0,11.0,38,0.00,,SKC,0.00,VWS V14.01,2013-01-20 19:14:00,
2013-01-20 11:19:00,57.7,32.9,30.21,North,5,4.0,8.0,39,0.00,,SKC,0.00,VWS V14.01,2013-01-20 19:19:00,
2013-01-20 11:29:00,58.7,32.5,30.20,NNE,25,8.0,9.0,37,0.00,,SKC,0.00,VWS V14.01,2013-01-20 19:29:00,
2013-01-20 11:39:00,59.0,32.8,30.20,North,9,4.0,12.0,37,0.00,,SKC,0.00,VWS V14.01,2013-01-20 19:39:00,
2013-01-20 11:49:00,58.8,32.6,30.19,North,11,4.0,8.0,37,0.00,,SKC,0.00,VWS V14.01,2013-01-20 19:49:00,
2013-01-20 11:54:00,58.8,33.3,30.19,ENE,65,1.0,7.0,38,0.00,,SKC,0.00,VWS V14.01,2013-01-20 19:54:00,
2013-01-20 11:59:00,59.0,33.5,30.19,North,355,5.0,8.0,38,0.00,,SKC,0.00,VWS V14.01,2013-01-20 19:59:00,
2013-01-20 12:09:00,59.0,33.5,30.18,WNW,288,1.0,11.0,38,0.00,,SKC,0.00,VWS V14.01,2013-01-20 20:09:00,
2013-01-20 12:14:00,59.0,33.5,30.18,NE,37,1.0,8.0,38,0.00,,SKC,0.00,VWS V14.01,2013-01-20 20:14:00,
2013-01-20 12:19:00,59.0,32.8,30.18,NE,35,5.0,10.0,37,0.00,,SKC,0.00,VWS V14.01,2013-01-20 20:19:00,
2013-01-20 12:24:00,59.0,33.5,30.18,NNE,32,7.0,7.0,38,0.00,,SKC,0.00,VWS V14.01,2013-01-20 20:24:00,
2013-01-20 12:29:00,59.3,33.7,30.18,NNE,14,2.0,8.0,38,0.00,,SKC,0.00,VWS V14.01,2013-01-20 20:29:00,
2013-01-20 12:34:00,59.7,34.7,30.17,North,9,6.0,9.0,39,0.00,,SKC,0.00,VWS V14.01,2013-01-20 20:34:00,
2013-01-20 12:39:00,59.9,34.2,30.17,NNE,19,7.0,7.0,38,0.00,,SKC,0.00,VWS V14.01,2013-01-20 20:39:00,
2013-01-20 12:44:00,59.8,34.2,30.17,NE,38,2.0,11.0,38,0.00,,SKC,0.00,VWS V14.01,2013-01-20 20:44:00,
2013-01-20 12:49:00,59.8,34.8,30.17,ENE,68,1.0,6.0,39,0.00,,SKC,0.00,VWS V14.01,2013-01-20 20:49:00,
2013-01-20 12:54:00,59.8,34.8,30.17,NNE,30,1.0,6.0,39,0.00,,SKC,0.00,VWS V14.01,2013-01-20 20:54:00,
2013-01-20 12:59:00,59.7,35.4,30.16,ESE,117,1.0,8.0,40,0.00,,SKC,0.00,VWS V14.01,2013-01-20 20:59:00,
2013-01-20 13:04:00,59.9,36.2,30.16,NNE,22,2.0,7.0,41,0.00,,SKC,0.00,VWS V14.01,2013-01-20 21:04:00,
2013-01-20 13:14:00,60.2,37.0,30.16,NE,44,7.0,11.0,42,0.00,,SKC,0.00,VWS V14.01,2013-01-20 21:14:00,
2013-01-20 13:19:00,60.1,37.5,30.15,NE,56,1.0,7.0,43,0.00,,SKC,0.00,VWS V14.01,2013-01-20 21:19:00,
2013-01-20 13:24:00,60.0,36.9,30.15,SSE,163,1.0,6.0,42,0.00,,SKC,0.00,VWS V14.01,2013-01-20 21:24:00,
2013-01-20 13:29:00,59.8,37.3,30.15,NNW,329,4.0,9.0,43,0.00,,SKC,0.00,VWS V14.01,2013-01-20 21:29:00,
2013-01-20 13:34:00,59.5,37.6,30.15,East,95,2.0,8.0,44,0.00,,SKC,0.00,VWS V14.01,2013-01-20 21:34:00,
2013-01-20 13:39:00,59.3,38.0,30.15,NNE,28,6.0,7.0,45,0.00,,SKC,0.00,VWS V14.01,2013-01-20 21:39:00,
2013-01-20 13:44:00,59.3,37.4,30.14,East,90,3.0,7.0,44,0.00,,SKC,0.00,VWS V14.01,2013-01-20 21:44:00,
2013-01-20 13:54:00,59.8,36.7,30.14,NNW,346,1.0,6.0,42,0.00,,SKC,0.00,VWS V14.01,2013-01-20 21:54:00,
2013-01-20 13:59:00,60.0,36.2,30.14,ESE,122,4.0,7.0,41,0.00,,SKC,0.00,VWS V14.01,2013-01-20 21:59:00,
2013-01-20 14:04:00,59.8,36.7,30.14,NE,52,4.0,7.0,42,0.00,,SKC,0.00,VWS V14.01,2013-01-20 22:04:00,
2013-01-20 14:14:00,59.8,36.7,30.13,NE,47,5.0,7.0,42,0.00,,SKC,0.00,VWS V14.01,2013-01-20 22:14:00,
2013-01-20 14:19:00,59.6,36.5,30.13,SE,127,5.0,8.0,42,0.00,,SKC,0.00,VWS V14.01,2013-01-20 22:19:00,
2013-01-20 14:24:00,59.8,36.7,30.13,ESE,103,2.0,8.0,42,0.00,,SKC,0.00,VWS V14.01,2013-01-20 22:24:00,
2013-01-20 14:34:00,60.0,36.9,30.13,NNE,30,0.0,8.0,42,0.00,,SKC,0.00,VWS V14.01,2013-01-20 22:34:00,
2013-01-20 14:39:00,60.1,36.3,30.13,NE,53,5.0,7.0,41,0.00,,SKC,0.00,VWS V14.01,2013-01-20 22:39:00,
2013-01-20 14:44:00,59.9,36.8,30.13,NE,53,2.0,7.0,42,0.00,,SKC,0.00,VWS V14.01,2013-01-20 22:44:00,
2013-01-20 14:49:00,59.9,35.5,30.13,East,101,4.0,6.0,40,0.00,,SKC,0.00,VWS V14.01,2013-01-20 22:49:00,
2013-01-20 14:54:00,60.0,35.6,30.13,ENE,57,0.0,6.0,40,0.00,,SKC,0.00,VWS V14.01,2013-01-20 22:54:00,
2013-01-20 15:04:00,60.4,36.0,30.13,East,79,0.0,8.0,40,0.00,,SKC,0.00,VWS V14.01,2013-01-20 23:04:00,
2013-01-20 15:09:00,60.3,35.3,30.13,NE,48,2.0,6.0,39,0.00,,SKC,0.00,VWS V14.01,2013-01-20 23:09:00,
2013-01-20 15:19:00,60.2,35.8,30.13,ESE,105,1.0,5.0,40,0.00,,SKC,0.00,VWS V14.01,2013-01-20 23:19:00,
2013-01-20 15:24:00,60.4,35.3,30.13,NE,44,4.0,6.0,39,0.00,,SKC,0.00,VWS V14.01,2013-01-20 23:24:00,
2013-01-20 15:29:00,60.3,35.9,30.13,NNE,27,4.0,8.0,40,0.00,,SKC,0.00,VWS V14.01,2013-01-20 23:29:00,
2013-01-20 15:34:00,60.2,35.8,30.13,NE,51,2.0,7.0,40,0.00,,SKC,0.00,VWS V14.01,2013-01-20 23:34:00,
2013-01-20 15:39:00,60.1,36.3,30.13,ENE,61,0.0,5.0,41,0.00,,SKC,0.00,VWS V14.01,2013-01-20 23:39:00,
2013-01-20 15:44:00,60.2,36.4,30.14,NNE,32,1.0,5.0,41,0.00,,SKC,0.00,VWS V14.01,2013-01-20 23:44:00,
2013-01-20 15:49:00,60.3,36.5,30.13,NE,40,1.0,4.0,41,0.00,,SKC,0.00,VWS V14.01,2013-01-20 23:49:00,
2013-01-20 15:54:00,60.2,37.0,30.14,NE,53,0.0,4.0,42,0.00,,SKC,0.00,VWS V14.01,2013-01-20 23:54:00,
2013-01-20 15:59:00,60.1,37.0,30.14,NNE,21,5.0,5.0,42,0.00,,SKC,0.00,VWS V14.01,2013-01-20 23:59:00,
2013-01-20 16:04:00,60.0,36.9,30.14,NNE,17,1.0,5.0,42,0.00,,SKC,0.00,VWS V14.01,2013-01-21 00:04:00,
2013-01-20 16:09:00,59.9,36.8,30.14,NNE,28,2.0,6.0,42,0.00,,SKC,0.00,VWS V14.01,2013-01-21 00:09:00,
2013-01-20 16:14:00,59.7,36.6,30.14,NNE,17,5.0,6.0,42,0.00,,SKC,0.00,VWS V14.01,2013-01-21 00:14:00,
2013-01-20 16:19:00,59.4,36.3,30.14,NNE,18,3.0,6.0,42,0.00,,SKC,0.00,VWS V14.01,2013-01-21 00:19:00,
2013-01-20 16:30:00,59.0,34.7,30.14,ESE,114,2.0,4.0,40,0.00,,SKC,0.00,VWS V14.01,2013-01-21 00:30:00,
2013-01-20 16:39:00,59.1,33.5,30.14,SSE,153,2.0,4.0,38,0.00,,SKC,0.00,VWS V14.01,2013-01-21 00:39:00,
2013-01-20 16:49:00,58.7,35.1,30.14,SE,128,1.0,6.0,41,0.00,,SKC,0.00,VWS V14.01,2013-01-21 00:49:00,
2013-01-20 16:54:00,58.2,34.6,30.14,East,92,0.0,4.0,41,0.00,,SKC,0.00,VWS V14.01,2013-01-21 00:54:00,
2013-01-20 16:59:00,57.8,33.7,30.13,NE,49,2.0,6.0,40,0.00,,SKC,0.00,VWS V14.01,2013-01-21 00:59:00,
2013-01-20 17:04:00,57.6,33.5,30.13,ENE,60,0.0,5.0,40,0.00,,SKC,0.00,VWS V14.01,2013-01-21 01:04:00,
2013-01-20 17:09:00,57.4,33.3,30.13,East,80,0.0,5.0,40,0.00,,SKC,0.00,VWS V14.01,2013-01-21 01:09:00,
2013-01-20 17:14:00,57.0,33.5,30.13,NE,54,1.0,5.0,41,0.00,,SKC,0.00,VWS V14.01,2013-01-21 01:14:00,
2013-01-20 17:19:00,56.6,33.2,30.14,NE,50,0.0,4.0,41,0.00,,SKC,0.00,VWS V14.01,2013-01-21 01:19:00,
2013-01-20 17:24:00,56.0,33.8,30.14,NE,49,0.0,0.0,43,0.00,,SKC,0.00,VWS V14.01,2013-01-21 01:24:00,
2013-01-20 17:29:00,55.3,34.9,30.14,NE,49,0.0,1.0,46,0.00,,SKC,0.00,VWS V14.01,2013-01-21 01:29:00,
2013-01-20 17:34:00,54.4,36.2,30.14,NE,49,0.0,0.0,50,0.00,,SKC,0.00,VWS V14.01,2013-01-21 01:34:00,
2013-01-20 17:39:00,53.5,36.3,30.13,NE,50,0.0,0.0,52,0.00,,SKC,0.00,VWS V14.01,2013-01-21 01:39:00,
2013-01-20 17:44:00,52.6,36.0,30.13,NE,49,0.0,1.0,53,0.00,,SKC,0.00,VWS V14.01,2013-01-21 01:44:00,
2013-01-20 17:54:00,51.1,35.0,30.13,NE,49,0.0,4.0,54,0.00,,SKC,0.00,VWS V14.01,2013-01-21 01:54:00,
2013-01-20 17:59:00,50.5,34.5,30.13,NE,49,0.0,0.0,54,0.00,,SKC,0.00,VWS V14.01,2013-01-21 01:59:00,
2013-01-20 18:04:00,50.1,32.2,30.13,SE,134,4.0,8.0,50,0.00,,SKC,0.00,VWS V14.01,2013-01-21 02:04:00,
2013-01-20 18:09:00,51.8,31.1,30.14,ENE,71,0.0,6.0,45,0.00,,SKC,0.00,VWS V14.01,2013-01-21 02:09:00,
2013-01-20 18:14:00,52.8,33.2,30.14,NNE,30,0.0,5.0,47,0.00,,SKC,0.00,VWS V14.01,2013-01-21 02:14:00,
2013-01-20 18:19:00,52.2,33.1,30.14,NNE,30,0.0,2.0,48,0.00,,SKC,0.00,VWS V14.01,2013-01-21 02:19:00,
2013-01-20 18:24:00,51.3,33.3,30.14,ENE,63,0.0,4.0,50,0.00,,SKC,0.00,VWS V14.01,2013-01-21 02:24:00,
2013-01-20 18:29:00,50.5,33.1,30.14,ENE,74,0.0,2.0,51,0.00,,SKC,0.00,VWS V14.01,2013-01-21 02:29:00,
2013-01-20 18:34:00,49.9,33.5,30.14,ENE,74,0.0,0.0,53,0.00,,SKC,0.00,VWS V14.01,2013-01-21 02:34:00,
2013-01-20 18:39:00,49.3,33.4,30.15,ENE,74,0.0,0.0,54,0.00,,SKC,0.00,VWS V14.01,2013-01-21 02:39:00,
2013-01-20 18:44:00,48.6,33.2,30.15,NNE,21,0.0,4.0,55,0.00,,SKC,0.00,VWS V14.01,2013-01-21 02:44:00,
2013-01-20 18:49:00,48.2,32.8,30.15,NNE,29,0.0,5.0,55,0.00,,SKC,0.00,VWS V14.01,2013-01-21 02:49:00,
2013-01-20 18:54:00,48.5,32.2,30.15,NE,37,3.0,8.0,53,0.00,,SKC,0.00,VWS V14.01,2013-01-21 02:54:00,
2013-01-20 18:59:00,48.6,32.7,30.15,SSW,206,0.0,5.0,54,0.00,,SKC,0.00,VWS V14.01,2013-01-21 02:59:00,
2013-01-20 19:04:00,48.3,32.9,30.15,SSW,206,0.0,1.0,55,0.00,,SKC,0.00,VWS V14.01,2013-01-21 03:04:00,
2013-01-20 19:09:00,47.9,33.0,30.15,NNE,24,0.0,4.0,56,0.00,,SKC,0.00,VWS V14.01,2013-01-21 03:09:00,
2013-01-20 19:14:00,47.4,33.0,30.15,ESE,110,0.0,4.0,57,0.00,,SKC,0.00,VWS V14.01,2013-01-21 03:14:00,
2013-01-20 19:19:00,47.0,32.6,30.15,NNE,24,0.0,5.0,57,0.00,,SKC,0.00,VWS V14.01,2013-01-21 03:19:00,
2013-01-20 19:24:00,46.7,32.3,30.15,SSE,165,3.0,3.0,57,0.00,,SKC,0.00,VWS V14.01,2013-01-21 03:24:00,
2013-01-20 19:29:00,46.7,32.7,30.14,East,88,2.0,5.0,58,0.00,,SKC,0.00,VWS V14.01,2013-01-21 03:29:00,
2013-01-20 19:34:00,46.7,32.3,30.15,NNE,31,0.0,4.0,57,0.00,,SKC,0.00,VWS V14.01,2013-01-21 03:34:00,
2013-01-20 19:39:00,46.8,32.4,30.15,East,87,1.0,5.0,57,0.00,,SKC,0.00,VWS V14.01,2013-01-21 03:39:00,
2013-01-20 19:49:00,46.8,32.0,30.15,NNE,25,0.0,4.0,56,0.00,,SKC,0.00,VWS V14.01,2013-01-21 03:49:00,
2013-01-20 19:55:00,46.4,31.6,30.15,NNE,25,0.0,1.0,56,0.00,,SKC,0.00,VWS V14.01,2013-01-21 03:55:00,
2013-01-20 20:04:00,45.5,31.6,30.15,NNE,25,0.0,0.0,58,0.00,,SKC,0.00,VWS V14.01,2013-01-21 04:04:00,
2013-01-20 20:09:00,44.8,30.9,30.15,NNE,25,0.0,4.0,58,0.00,,SKC,0.00,VWS V14.01,2013-01-21 04:09:00,
2013-01-20 20:14:00,44.2,30.8,30.16,NNE,25,0.0,2.0,59,0.00,,SKC,0.00,VWS V14.01,2013-01-21 04:14:00,
2013-01-20 20:20:00,43.7,30.3,30.16,NNE,25,0.0,1.0,59,0.00,,SKC,0.00,VWS V14.01,2013-01-21 04:20:00,
2013-01-20 20:29:00,43.0,30.1,30.16,NNE,25,0.0,2.0,60,0.00,,SKC,0.00,VWS V14.01,2013-01-21 04:29:00,
2013-01-20 20:34:00,42.6,29.7,30.16,NNE,25,0.0,0.0,60,0.00,,SKC,0.00,VWS V14.01,2013-01-21 04:34:00,
2013-01-20 20:39:00,42.2,29.7,30.16,NNE,25,0.0,1.0,61,0.00,,SKC,0.00,VWS V14.01,2013-01-21 04:39:00,
2013-01-20 20:44:00,41.7,29.3,30.16,NNE,25,0.0,1.0,61,0.00,,SKC,0.00,VWS V14.01,2013-01-21 04:44:00,
2013-01-20 20:49:00,41.3,28.9,30.16,NNE,25,0.0,2.0,61,0.00,,SKC,0.00,VWS V14.01,2013-01-21 04:49:00,
2013-01-20 20:54:00,41.0,28.6,30.16,NNE,25,0.0,3.0,61,0.00,,SKC,0.00,VWS V14.01,2013-01-21 04:54:00,
2013-01-20 20:59:00,40.8,28.8,30.16,NNE,25,1.0,1.0,62,0.00,,SKC,0.00,VWS V14.01,2013-01-21 04:59:00,
2013-01-20 21:05:00,40.6,28.6,30.15,NNE,25,0.0,1.0,62,0.00,,SKC,0.00,VWS V14.01,2013-01-21 05:05:00,
2013-01-20 21:14:00,40.1,28.1,30.15,NNE,25,0.0,0.0,62,0.00,,SKC,0.00,VWS V14.01,2013-01-21 05:14:00,
2013-01-20 21:19:00,39.8,27.9,30.15,NNE,25,0.0,0.0,62,0.00,,SKC,0.00,VWS V14.01,2013-01-21 05:19:00,
2013-01-20 21:24:00,39.5,27.6,30.15,NNE,25,0.0,1.0,62,0.00,,SKC,0.00,VWS V14.01,2013-01-21 05:24:00,
2013-01-20 21:29:00,39.3,27.8,30.15,NNE,25,0.0,0.0,63,0.00,,SKC,0.00,VWS V14.01,2013-01-21 05:29:00,
2013-01-20 21:34:00,39.1,27.6,30.16,NNE,25,0.0,0.0,63,0.00,,SKC,0.00,VWS V14.01,2013-01-21 05:34:00,
2013-01-20 21:39:00,39.0,27.5,30.16,NNE,25,0.0,0.0,63,0.00,,SKC,0.00,VWS V14.01,2013-01-21 05:39:00,
2013-01-20 21:44:00,38.9,27.8,30.16,NNE,25,0.0,0.0,64,0.00,,SKC,0.00,VWS V14.01,2013-01-21 05:44:00,
2013-01-20 21:49:00,38.7,27.6,30.16,NNE,25,0.0,0.0,64,0.00,,SKC,0.00,VWS V14.01,2013-01-21 05:49:00,
2013-01-20 21:54:00,38.6,27.5,30.17,NNE,25,0.0,1.0,64,0.00,,SKC,0.00,VWS V14.01,2013-01-21 05:54:00,
2013-01-20 21:59:00,38.3,27.2,30.17,NNE,25,0.0,0.0,64,0.00,,SKC,0.00,VWS V14.01,2013-01-21 05:59:00,
2013-01-20 22:04:00,38.1,27.0,30.17,NNE,25,0.0,0.0,64,0.00,,SKC,0.00,VWS V14.01,2013-01-21 06:04:00,
2013-01-20 22:09:00,38.0,27.3,30.17,NNE,25,0.0,0.0,65,0.00,,SKC,0.00,VWS V14.01,2013-01-21 06:09:00,
2013-01-20 22:14:00,37.9,27.2,30.17,NNE,25,0.0,0.0,65,0.00,,SKC,0.00,VWS V14.01,2013-01-21 06:14:00,
2013-01-20 22:19:00,37.8,27.5,30.17,NNE,25,0.0,1.0,66,0.00,,SKC,0.00,VWS V14.01,2013-01-21 06:19:00,
2013-01-20 22:25:00,37.8,27.8,30.17,NNE,25,0.0,0.0,67,0.00,,SKC,0.00,VWS V14.01,2013-01-21 06:25:00,
2013-01-20 22:34:00,37.7,27.4,30.17,NNE,25,0.0,1.0,66,0.00,,SKC,0.00,VWS V14.01,2013-01-21 06:34:00,
2013-01-20 22:39:00,37.5,27.5,30.17,NNE,25,0.0,1.0,67,0.00,,SKC,0.00,VWS V14.01,2013-01-21 06:39:00,
2013-01-20 22:44:00,37.3,27.4,30.17,NNE,25,0.0,0.0,67,0.00,,SKC,0.00,VWS V14.01,2013-01-21 06:44:00,
2013-01-20 22:49:00,37.0,27.4,30.17,NNE,25,0.0,1.0,68,0.00,,SKC,0.00,VWS V14.01,2013-01-21 06:49:00,
2013-01-20 22:54:00,37.0,27.1,30.17,NNE,25,1.0,1.0,67,0.00,,SKC,0.00,VWS V14.01,2013-01-21 06:54:00,
2013-01-20 22:59:00,36.9,27.3,30.16,NNE,25,0.0,1.0,68,0.00,,SKC,0.00,VWS V14.01,2013-01-21 06:59:00,
2013-01-20 23:04:00,36.7,27.1,30.17,NNE,25,0.0,0.0,68,0.00,,SKC,0.00,VWS V14.01,2013-01-21 07:04:00,
2013-01-20 23:09:00,36.4,27.2,30.17,NNE,25,0.0,1.0,69,0.00,,SKC,0.00,VWS V14.01,2013-01-21 07:09:00,
2013-01-20 23:14:00,36.4,27.2,30.17,NNE,25,0.0,1.0,69,0.00,,SKC,0.00,VWS V14.01,2013-01-21 07:14:00,
2013-01-20 23:19:00,36.5,27.3,30.16,NNE,25,0.0,2.0,69,0.00,,SKC,0.00,VWS V14.01,2013-01-21 07:19:00,
2013-01-20 23:24:00,36.3,27.1,30.17,NNE,25,0.0,2.0,69,0.00,,SKC,0.00,VWS V14.01,2013-01-21 07:24:00,
2013-01-20 23:29:00,36.0,27.2,30.16,NNE,25,0.0,1.0,70,0.00,,SKC,0.00,VWS V14.01,2013-01-21 07:29:00,
2013-01-20 23:34:00,35.9,27.1,30.16,NNE,25,2.0,2.0,70,0.00,,SKC,0.00,VWS V14.01,2013-01-21 07:34:00,
2013-01-20 23:39:00,36.1,27.6,30.16,NNE,25,0.0,2.0,71,0.00,,SKC,0.00,VWS V14.01,2013-01-21 07:39:00,
2013-01-20 23:44:00,35.9,27.4,30.16,NNE,25,0.0,0.0,71,0.00,,SKC,0.00,VWS V14.01,2013-01-21 07:44:00,
2013-01-20 23:49:00,35.8,27.3,30.16,NNE,25,0.0,0.0,71,0.00,,SKC,0.00,VWS V14.01,2013-01-21 07:49:00,
2013-01-20 23:54:00,35.5,27.0,30.16,NNE,25,0.0,0.0,71,0.00,,SKC,0.00,VWS V14.01,2013-01-21 07:54:00,
2013-01-20 23:59:00,35.4,27.0,30.16,NNE,25,2.0,2.0,71,0.00,,SKC,0.00,VWS V14.01,2013-01-21 07:59:00,